createdAt,value
2024-02-14T00:00:52.665Z,2.03
2024-02-14T00:03:19.939Z,1.90
2024-02-14T00:05:46.724Z,2.30
2024-02-14T00:08:16.012Z,2.63
2024-02-14T00:10:44.694Z,2.30
2024-02-14T00:13:11.978Z,2.00
2024-02-14T00:15:38.692Z,2.63
2024-02-14T00:18:06.187Z,2.92
2024-02-14T00:20:33.783Z,2.30
2024-02-14T00:23:00.555Z,2.25
2024-02-14T00:25:27.393Z,2.08
2024-02-14T00:27:55.356Z,1.50
2024-02-14T00:30:24.295Z,1.95
2024-02-14T00:32:51.736Z,1.80
2024-02-14T00:35:18.563Z,1.88
2024-02-14T00:37:45.242Z,1.60
2024-02-14T00:40:12.691Z,1.70
2024-02-14T00:42:39.407Z,1.77
2024-02-14T00:45:10.065Z,1.60
2024-02-14T00:47:37.352Z,1.42
2024-02-14T00:50:04.391Z,2.10
2024-02-14T00:52:31.099Z,1.85
2024-02-14T00:54:58.500Z,1.63
2024-02-14T00:57:28.022Z,1.73
2024-02-14T00:59:56.469Z,1.70
2024-02-14T01:02:23.291Z,1.42
2024-02-14T01:04:50.079Z,1.42
2024-02-14T01:07:16.728Z,1.80
2024-02-14T01:09:43.415Z,1.40
2024-02-14T01:12:10.156Z,1.50
2024-02-14T01:14:37.061Z,1.50
2024-02-14T01:17:04.949Z,1.60
2024-02-14T01:19:31.783Z,1.75
2024-02-14T01:21:58.567Z,1.53
2024-02-14T01:24:28.017Z,1.60
2024-02-14T01:26:56.191Z,1.75
2024-02-14T01:29:24.424Z,1.50
2024-02-14T01:31:51.571Z,1.27
2024-02-14T01:34:18.559Z,1.40
2024-02-14T01:36:45.433Z,2.00
2024-02-14T01:39:12.173Z,1.33
2024-02-14T01:41:39.722Z,1.30
2024-02-14T01:44:06.634Z,1.65
2024-02-14T01:46:33.341Z,1.17
2024-02-14T01:49:00.297Z,1.27
2024-02-14T01:51:27.180Z,1.20
2024-02-14T01:53:54.067Z,1.35
2024-02-14T01:56:20.739Z,1.40
2024-02-14T01:58:47.670Z,0.90
2024-02-14T02:01:14.418Z,1.20
2024-02-14T02:03:41.149Z,1.40
2024-02-14T02:06:08.180Z,1.23
2024-02-14T02:08:35.101Z,1.35
2024-02-14T02:11:01.846Z,1.30
2024-02-14T02:13:28.574Z,1.13
2024-02-14T02:15:55.345Z,1.30
2024-02-14T02:18:22.360Z,0.90
2024-02-14T02:20:49.470Z,1.45
2024-02-14T02:23:16.281Z,1.20
2024-02-14T02:25:43.643Z,1.20
2024-02-14T02:28:10.464Z,1.20
2024-02-14T02:30:37.675Z,1.02
2024-02-14T02:33:05.403Z,1.45
2024-02-14T02:35:32.318Z,1.50
2024-02-14T02:37:59.213Z,1.13
2024-02-14T02:40:26.270Z,1.15
2024-02-14T02:42:52.926Z,1.48
2024-02-14T02:45:19.867Z,1.05
2024-02-14T02:47:46.670Z,1.40
2024-02-14T02:50:13.440Z,1.50
2024-02-14T02:52:41.644Z,1.85
2024-02-14T02:55:08.475Z,1.77
2024-02-14T02:57:37.975Z,1.50
2024-02-14T03:00:06.231Z,1.80
2024-02-14T03:02:33.097Z,1.88
2024-02-14T03:05:00.292Z,1.92
2024-02-14T03:07:27.830Z,1.60
2024-02-14T03:09:54.515Z,1.60
2024-02-14T03:12:21.788Z,1.70
2024-02-14T03:14:48.623Z,1.75
2024-02-14T03:17:15.342Z,1.73
2024-02-14T03:19:42.205Z,1.40
2024-02-14T03:22:10.326Z,1.40
2024-02-14T03:24:38.405Z,1.47
2024-02-14T03:27:08.211Z,1.80
2024-02-14T03:29:36.687Z,1.38
2024-02-14T03:32:05.803Z,1.52
2024-02-14T03:34:34.977Z,1.60
2024-02-14T03:37:03.388Z,1.87
2024-02-14T03:39:30.881Z,1.60
2024-02-14T03:41:57.921Z,1.60
2024-02-14T03:44:24.666Z,1.55
2024-02-14T03:46:51.455Z,1.88
2024-02-14T03:49:18.421Z,1.57
2024-02-14T03:51:45.361Z,1.70
2024-02-14T03:54:13.242Z,1.58
2024-02-14T03:56:40.280Z,1.65
2024-02-14T03:59:07.265Z,1.63
2024-02-14T04:01:34.122Z,1.40
2024-02-14T04:04:01.061Z,1.92
2024-02-14T04:06:28.351Z,1.58
2024-02-14T04:08:55.282Z,2.08
2024-02-14T04:11:22.072Z,1.60
2024-02-14T04:13:48.731Z,1.53
2024-02-14T04:16:15.406Z,1.70
2024-02-14T04:18:43.961Z,1.95
2024-02-14T04:21:11.045Z,1.90
2024-02-14T04:23:37.874Z,1.80
2024-02-14T04:26:04.743Z,1.93
2024-02-14T04:28:31.386Z,1.98
2024-02-14T04:30:58.223Z,2.10
2024-02-14T04:33:25.645Z,1.90
2024-02-14T04:35:52.549Z,2.78
2024-02-14T04:38:20.957Z,1.93
2024-02-14T04:40:47.636Z,1.60
2024-02-14T04:43:14.515Z,2.50
2024-02-14T04:45:41.304Z,2.05
2024-02-14T04:48:09.062Z,1.92
2024-02-14T04:50:36.128Z,1.80
2024-02-14T04:53:02.956Z,2.55
2024-02-14T04:55:30.407Z,2.20
2024-02-14T04:57:57.260Z,1.95
2024-02-14T05:00:24.157Z,1.80
2024-02-14T05:02:51.902Z,2.00
2024-02-14T05:05:18.778Z,1.98
2024-02-14T05:07:45.580Z,2.35
2024-02-14T05:10:12.315Z,1.90
2024-02-14T05:12:38.987Z,2.47
2024-02-14T05:15:06.200Z,2.13
2024-02-14T05:17:33.458Z,2.53
2024-02-14T05:20:00.689Z,1.98
2024-02-14T05:22:27.675Z,2.33
2024-02-14T05:24:54.469Z,2.13
2024-02-14T05:27:21.229Z,3.23
2024-02-14T05:29:48.095Z,2.22
2024-02-14T05:32:15.128Z,2.58
2024-02-14T05:34:43.106Z,2.50
2024-02-14T05:37:09.874Z,2.70
2024-02-14T05:39:36.547Z,2.60
2024-02-14T05:42:03.950Z,1.92
2024-02-14T05:44:31.526Z,3.00
2024-02-14T05:46:58.373Z,2.75
2024-02-14T05:49:26.044Z,3.67
2024-02-14T05:51:54.519Z,3.20
2024-02-14T05:54:21.247Z,2.90
2024-02-14T05:56:48.603Z,3.30
2024-02-14T05:59:15.361Z,3.00
2024-02-14T06:01:42.159Z,3.70
2024-02-14T06:04:08.943Z,2.67
2024-02-14T06:06:35.799Z,3.35
2024-02-14T06:09:03.794Z,3.47
2024-02-14T06:11:30.828Z,3.42
2024-02-14T06:13:57.507Z,3.38
2024-02-14T06:16:24.210Z,3.57
2024-02-14T06:18:51.113Z,3.83
2024-02-14T06:21:17.992Z,3.97
2024-02-14T06:23:48.056Z,4.35
2024-02-14T06:26:15.663Z,4.93
2024-02-14T06:28:42.382Z,6.00
2024-02-14T06:31:09.028Z,6.20
2024-02-14T06:33:36.078Z,5.03
2024-02-14T06:36:03.169Z,5.47
2024-02-14T06:38:30.050Z,5.18
2024-02-14T06:40:56.792Z,5.17
2024-02-14T06:43:23.501Z,5.50
2024-02-14T06:45:50.221Z,7.20
2024-02-14T06:48:17.051Z,6.20
2024-02-14T06:50:43.863Z,5.95
2024-02-14T06:53:10.564Z,6.07
2024-02-14T06:55:37.246Z,5.57
2024-02-14T06:58:06.155Z,5.63
2024-02-14T07:00:33.696Z,6.18
2024-02-14T07:03:00.559Z,6.18
2024-02-14T07:05:29.054Z,5.57
2024-02-14T07:07:56.626Z,6.03
2024-02-14T07:10:23.411Z,6.70
2024-02-14T07:12:50.096Z,6.88
2024-02-14T07:15:17.068Z,7.47
2024-02-14T07:17:44.166Z,7.17
2024-02-14T07:20:11.318Z,7.35
2024-02-14T07:22:38.131Z,8.02
2024-02-14T07:25:06.234Z,7.75
2024-02-14T07:27:33.137Z,8.80
2024-02-14T07:30:00.069Z,8.63
2024-02-14T07:32:28.954Z,10.05
2024-02-14T07:34:55.858Z,9.95
2024-02-14T07:37:22.733Z,9.20
2024-02-14T07:39:49.516Z,10.07
2024-02-14T07:42:16.647Z,9.80
2024-02-14T07:44:43.965Z,10.02
2024-02-14T07:47:10.795Z,9.23
2024-02-14T07:49:37.473Z,9.98
2024-02-14T07:52:04.767Z,9.70
2024-02-14T07:54:31.771Z,9.07
2024-02-14T07:56:58.454Z,8.82
2024-02-14T07:59:25.248Z,9.70
2024-02-14T08:01:52.094Z,9.27
2024-02-14T08:04:18.981Z,8.63
2024-02-14T08:06:51.611Z,9.83
2024-02-14T08:09:18.398Z,9.10
2024-02-14T08:11:45.090Z,8.25
2024-02-14T08:14:13.755Z,8.25
2024-02-14T08:16:40.493Z,7.60
2024-02-14T08:19:07.471Z,8.00
2024-02-14T08:21:34.467Z,6.75
2024-02-14T08:24:02.091Z,6.90
2024-02-14T08:26:29.634Z,6.18
2024-02-14T08:28:56.669Z,6.70
2024-02-14T08:31:23.602Z,6.10
2024-02-14T08:33:50.759Z,6.28
2024-02-14T08:36:21.234Z,6.43
2024-02-14T08:38:48.261Z,5.72
2024-02-14T08:41:15.515Z,6.25
2024-02-14T08:43:45.167Z,7.00
2024-02-14T08:46:14.034Z,5.80
2024-02-14T08:48:47.165Z,6.50
2024-02-14T08:51:15.005Z,6.95
2024-02-14T08:53:46.379Z,6.85
2024-02-14T08:56:14.048Z,6.67
2024-02-14T08:58:41.016Z,6.20
2024-02-14T09:01:14.124Z,4.85
2024-02-14T09:03:49.816Z,4.80
2024-02-14T09:06:19.131Z,4.30
2024-02-14T09:08:45.998Z,5.40
2024-02-14T09:11:13.654Z,4.82
2024-02-14T09:13:41.824Z,4.80
2024-02-14T09:16:12.465Z,4.53
2024-02-14T09:18:39.658Z,3.33
2024-02-14T09:21:07.215Z,3.17
2024-02-14T09:23:34.747Z,3.70
2024-02-14T09:26:02.915Z,4.35
2024-02-14T09:28:30.574Z,3.20
2024-02-14T09:30:57.367Z,4.18
2024-02-14T09:33:24.273Z,3.67
2024-02-14T09:35:53.587Z,3.60
2024-02-14T09:38:20.645Z,4.57
2024-02-14T09:40:47.446Z,3.60
2024-02-14T09:43:39.837Z,3.53
2024-02-14T09:46:08.409Z,2.40
2024-02-14T09:48:35.274Z,2.40
2024-02-14T09:51:02.099Z,2.80
2024-02-14T09:53:28.758Z,2.92
2024-02-14T09:55:55.831Z,2.53
2024-02-14T09:58:22.514Z,2.43
2024-02-14T10:00:49.322Z,2.20
2024-02-14T10:03:17.160Z,2.47
2024-02-14T10:05:44.420Z,2.35
2024-02-14T10:08:11.533Z,2.40
2024-02-14T10:10:39.074Z,2.20
2024-02-14T10:13:07.317Z,2.10
2024-02-14T10:15:34.703Z,2.47
2024-02-14T10:18:02.235Z,2.40
2024-02-14T10:20:31.031Z,2.53
2024-02-14T10:23:04.583Z,2.33
2024-02-14T10:25:32.783Z,2.60
2024-02-14T10:28:04.872Z,2.78
2024-02-14T10:30:31.683Z,2.70
2024-02-14T10:33:07.430Z,2.90
2024-02-14T10:35:42.717Z,3.30
2024-02-14T10:38:10.792Z,3.13
2024-02-14T10:40:39.465Z,2.75
2024-02-14T10:43:12.022Z,2.80
2024-02-14T10:45:38.722Z,2.97
2024-02-14T10:48:06.240Z,2.20
2024-02-14T10:50:34.838Z,2.80
2024-02-14T10:53:02.803Z,3.00
2024-02-14T10:55:31.123Z,2.58
2024-02-14T10:57:58.845Z,2.90
2024-02-14T11:00:25.541Z,2.80
2024-02-14T11:02:52.821Z,3.08
2024-02-14T11:05:20.543Z,3.38
2024-02-14T11:07:51.962Z,3.28
2024-02-14T11:10:18.866Z,2.63
2024-02-14T11:12:47.900Z,3.03
2024-02-14T11:15:21.987Z,2.40
2024-02-14T11:17:53.581Z,3.25
2024-02-14T11:20:23.003Z,2.63
2024-02-14T11:23:04.457Z,2.88
2024-02-14T11:25:32.398Z,3.43
2024-02-14T11:27:59.650Z,3.35
2024-02-14T11:30:39.177Z,3.17
2024-02-14T11:33:22.240Z,2.75
2024-02-14T11:35:54.186Z,3.05
2024-02-14T11:38:21.374Z,3.40
2024-02-14T11:40:48.124Z,2.83
2024-02-14T11:43:15.789Z,3.22
2024-02-14T11:45:43.180Z,2.63
2024-02-14T11:48:11.682Z,2.88
2024-02-14T11:50:40.377Z,2.90
2024-02-14T11:53:10.021Z,2.83
2024-02-14T11:55:38.410Z,3.13
2024-02-14T11:58:11.851Z,3.55
2024-02-14T12:00:42.103Z,2.92
2024-02-14T12:03:20.562Z,2.40
2024-02-14T12:05:49.156Z,1.80
2024-02-14T12:08:16.255Z,2.00
2024-02-14T12:10:50.754Z,1.90
2024-02-14T12:13:19.623Z,2.50
2024-02-14T12:15:47.127Z,1.50
2024-02-14T12:18:15.151Z,1.65
2024-02-14T12:20:42.733Z,1.80
2024-02-14T12:23:09.479Z,1.92
2024-02-14T12:25:36.266Z,2.35
2024-02-14T12:28:03.054Z,1.90
2024-02-14T12:30:44.515Z,1.90
2024-02-14T12:33:12.580Z,2.00
2024-02-14T12:35:43.392Z,2.20
2024-02-14T12:38:10.759Z,2.17
2024-02-14T12:40:37.787Z,2.00
2024-02-14T12:43:06.967Z,1.90
2024-02-14T12:45:33.757Z,2.50
2024-02-14T12:48:00.725Z,2.17
2024-02-14T12:50:27.643Z,2.03
2024-02-14T12:52:54.352Z,2.10
2024-02-14T12:55:21.029Z,2.03
2024-02-14T12:57:48.977Z,2.40
2024-02-14T13:00:16.597Z,1.88
2024-02-14T13:02:43.942Z,1.95
2024-02-14T13:05:10.855Z,2.07
2024-02-14T13:07:37.639Z,1.92
2024-02-14T13:10:04.485Z,2.40
2024-02-14T13:12:31.280Z,1.85
2024-02-14T13:14:58.230Z,2.42
2024-02-14T13:17:26.956Z,2.27
2024-02-14T13:19:54.544Z,2.10
2024-02-14T13:22:21.476Z,2.33
2024-02-14T13:24:48.260Z,1.98
2024-02-14T13:27:15.619Z,2.10
2024-02-14T13:29:42.661Z,2.73
2024-02-14T13:32:09.480Z,2.17
2024-02-14T13:34:36.435Z,2.08
2024-02-14T13:37:03.727Z,2.03
2024-02-14T13:39:30.395Z,2.88
2024-02-14T13:41:59.494Z,2.63
2024-02-14T13:44:26.862Z,2.60
2024-02-14T13:46:54.356Z,2.40
2024-02-14T13:49:24.403Z,3.70
2024-02-14T13:51:54.255Z,2.80
2024-02-14T13:54:21.306Z,2.40
2024-02-14T13:56:49.642Z,2.53
2024-02-14T13:59:16.327Z,2.80
2024-02-14T14:01:43.233Z,2.55
2024-02-14T14:04:09.959Z,2.40
2024-02-14T14:06:36.861Z,2.93
2024-02-14T14:09:09.084Z,3.00
2024-02-14T14:11:35.967Z,3.40
2024-02-14T14:14:02.733Z,2.65
2024-02-14T14:16:29.485Z,2.40
2024-02-14T14:18:56.496Z,2.50
2024-02-14T14:21:23.489Z,2.40
2024-02-14T14:23:50.276Z,2.88
2024-02-14T14:26:17.033Z,2.72
2024-02-14T14:28:43.858Z,2.55
2024-02-14T14:31:13.387Z,2.40
2024-02-14T14:33:40.487Z,2.88
2024-02-14T14:36:07.576Z,2.42
2024-02-14T14:38:34.488Z,3.03
2024-02-14T14:41:01.210Z,2.65
2024-02-14T14:43:29.115Z,2.70
2024-02-14T14:45:58.166Z,3.10
2024-02-14T14:48:25.270Z,3.15
2024-02-14T14:50:52.246Z,2.92
2024-02-14T14:53:19.134Z,2.85
2024-02-14T14:55:54.193Z,3.07
2024-02-14T14:58:23.105Z,2.85
2024-02-14T15:00:56.081Z,3.30
2024-02-14T15:03:23.531Z,2.88
2024-02-14T15:05:50.545Z,2.85
2024-02-14T15:08:19.241Z,2.70
2024-02-14T15:10:45.992Z,2.92
2024-02-14T15:13:14.547Z,4.47
2024-02-14T15:15:41.301Z,3.00
2024-02-14T15:18:08.155Z,3.30
2024-02-14T15:20:37.326Z,3.20
2024-02-14T15:23:04.591Z,3.08
2024-02-14T15:25:31.324Z,3.10
2024-02-14T15:27:58.403Z,3.30
2024-02-14T15:30:44.224Z,4.28
2024-02-14T15:33:27.569Z,3.30
2024-02-14T15:35:55.136Z,2.92
2024-02-14T15:38:22.013Z,3.22
2024-02-14T15:40:48.933Z,3.30
2024-02-14T15:43:15.699Z,3.05
2024-02-14T15:45:42.492Z,3.27
2024-02-14T15:48:09.624Z,3.03
2024-02-14T15:50:36.825Z,3.08
2024-02-14T15:53:05.314Z,3.28
2024-02-14T15:55:35.955Z,3.10
2024-02-14T15:58:02.943Z,3.83
2024-02-14T16:00:32.717Z,3.80
2024-02-14T16:03:00.530Z,3.20
2024-02-14T16:05:28.265Z,3.40
2024-02-14T16:07:55.687Z,3.28
2024-02-14T16:10:22.435Z,3.80
2024-02-14T16:12:49.693Z,3.85
2024-02-14T16:15:20.312Z,3.97
2024-02-14T16:17:47.603Z,3.65
2024-02-14T16:20:15.170Z,4.10
2024-02-14T16:22:42.113Z,4.23
2024-02-14T16:25:09.333Z,5.07
2024-02-14T16:27:37.113Z,5.53
2024-02-14T16:30:07.549Z,6.40
2024-02-14T16:32:34.952Z,8.77
2024-02-14T16:35:05.990Z,8.70
2024-02-14T16:37:32.862Z,7.68
2024-02-14T16:39:59.812Z,5.80
2024-02-14T16:42:26.704Z,5.88
2024-02-14T16:44:53.616Z,5.65
2024-02-14T16:47:20.864Z,5.33
2024-02-14T16:49:47.593Z,4.93
2024-02-14T16:52:14.300Z,5.57
2024-02-14T16:54:41.635Z,7.35
2024-02-14T16:57:11.842Z,6.35
2024-02-14T16:59:41.951Z,5.67
2024-02-14T17:02:09.322Z,4.90
2024-02-14T17:04:36.167Z,4.30
2024-02-14T17:07:03.034Z,3.45
2024-02-14T17:09:29.915Z,3.83
2024-02-14T17:11:56.969Z,3.87
2024-02-14T17:14:25.240Z,4.10
2024-02-14T17:16:56.768Z,3.85
2024-02-14T17:19:24.087Z,4.57
2024-02-14T17:21:51.012Z,3.67
2024-02-14T17:24:18.026Z,4.10
2024-02-14T17:26:44.842Z,3.50
2024-02-14T17:29:11.903Z,4.13
2024-02-14T17:31:39.393Z,3.30
2024-02-14T17:34:06.732Z,4.22
2024-02-14T17:36:33.624Z,4.00
2024-02-14T17:39:00.767Z,4.13
2024-02-14T17:41:27.615Z,4.15
2024-02-14T17:43:54.715Z,4.68
2024-02-14T17:46:21.874Z,4.18
2024-02-14T17:48:52.391Z,4.87
2024-02-14T17:51:19.337Z,4.30
2024-02-14T17:53:46.075Z,3.80
2024-02-14T17:56:12.789Z,4.18
2024-02-14T17:58:39.463Z,4.70
2024-02-14T18:01:06.877Z,3.97
2024-02-14T18:03:33.781Z,4.35
2024-02-14T18:06:00.818Z,4.53
2024-02-14T18:08:28.020Z,4.18
2024-02-14T18:10:54.948Z,4.03
2024-02-14T18:13:21.720Z,4.10
2024-02-14T18:15:50.304Z,4.20
2024-02-14T18:18:17.120Z,4.72
2024-02-14T18:20:43.962Z,3.75
2024-02-14T18:23:10.738Z,4.10
2024-02-14T18:25:37.427Z,4.13
2024-02-14T18:28:04.382Z,4.38
2024-02-14T18:30:34.193Z,4.28
2024-02-14T18:33:02.065Z,4.55
2024-02-14T18:35:28.937Z,5.43
2024-02-14T18:37:55.746Z,5.33
2024-02-14T18:40:22.523Z,5.30
2024-02-14T18:42:49.466Z,5.30
2024-02-14T18:45:16.243Z,5.00
2024-02-14T18:47:43.124Z,5.65
2024-02-14T18:50:10.237Z,5.70
2024-02-14T18:52:37.026Z,5.05
2024-02-14T18:55:03.967Z,5.57
2024-02-14T18:57:30.848Z,5.40
2024-02-14T19:00:02.883Z,4.93
2024-02-14T19:02:34.326Z,6.00
2024-02-14T19:05:01.254Z,6.70
2024-02-14T19:07:27.974Z,6.93
2024-02-14T19:09:54.847Z,6.97
2024-02-14T19:12:21.756Z,5.60
2024-02-14T19:14:50.361Z,4.53
2024-02-14T19:17:17.161Z,5.88
2024-02-14T19:19:45.168Z,5.28
2024-02-14T19:22:12.231Z,4.30
2024-02-14T19:24:40.581Z,4.65
2024-02-14T19:27:07.414Z,5.20
2024-02-14T19:29:34.393Z,5.05
2024-02-14T19:32:01.123Z,5.82
2024-02-14T19:34:28.824Z,6.45
2024-02-14T19:36:55.784Z,7.32
2024-02-14T19:39:23.397Z,6.80
2024-02-14T19:41:50.263Z,6.55
2024-02-14T19:44:16.999Z,5.63
2024-02-14T19:46:43.829Z,5.72
2024-02-14T19:49:12.700Z,5.82
2024-02-14T19:51:39.479Z,6.00
2024-02-14T19:54:06.370Z,6.10
2024-02-14T19:56:33.067Z,5.72
2024-02-14T19:58:59.764Z,5.60
2024-02-14T20:01:26.556Z,7.13
2024-02-14T20:03:57.731Z,9.33
2024-02-14T20:06:24.604Z,9.18
2024-02-14T20:08:51.562Z,8.13
2024-02-14T20:11:18.663Z,7.70
2024-02-14T20:13:45.364Z,6.18
2024-02-14T20:16:12.536Z,6.40
2024-02-14T20:18:39.557Z,5.85
2024-02-14T20:21:08.112Z,4.88
2024-02-14T20:23:35.455Z,5.22
2024-02-14T20:26:02.968Z,5.65
2024-02-14T20:28:30.171Z,5.03
2024-02-14T20:30:56.961Z,5.25
2024-02-14T20:33:25.795Z,5.43
2024-02-14T20:35:52.911Z,4.80
2024-02-14T20:38:19.623Z,3.97
2024-02-14T20:40:47.638Z,3.70
2024-02-14T20:43:14.403Z,4.75
2024-02-14T20:45:41.166Z,4.70
2024-02-14T20:48:09.090Z,3.75
2024-02-14T20:50:36.500Z,4.57
2024-02-14T20:53:04.477Z,4.87
2024-02-14T20:55:33.240Z,4.18
2024-02-14T20:58:01.372Z,5.57
2024-02-14T21:00:28.115Z,4.90
2024-02-14T21:02:55.031Z,4.30
2024-02-14T21:05:21.718Z,4.30
2024-02-14T21:07:48.507Z,4.53
2024-02-14T21:10:17.500Z,4.35
2024-02-14T21:12:45.618Z,4.47
2024-02-14T21:15:12.414Z,4.70
2024-02-14T21:17:39.280Z,4.50
2024-02-14T21:20:06.821Z,4.22
2024-02-14T21:22:35.017Z,5.15
2024-02-14T21:25:03.302Z,5.43
2024-02-14T21:27:30.395Z,5.50
2024-02-14T21:29:57.355Z,4.83
2024-02-14T21:32:24.157Z,4.03
2024-02-14T21:34:50.905Z,4.88
2024-02-14T21:37:18.097Z,4.28
2024-02-14T21:39:44.831Z,4.50
2024-02-14T21:42:11.589Z,4.90
2024-02-14T21:44:38.628Z,4.65
2024-02-14T21:47:08.946Z,4.70
2024-02-14T21:49:37.365Z,4.65
2024-02-14T21:52:07.954Z,4.22
2024-02-14T21:54:35.081Z,4.47
2024-02-14T21:57:02.345Z,4.22
2024-02-14T21:59:29.512Z,4.10
2024-02-14T22:01:57.494Z,4.43
2024-02-14T22:04:24.594Z,4.28
2024-02-14T22:06:51.842Z,4.03
2024-02-14T22:09:22.183Z,4.15
2024-02-14T22:11:49.372Z,4.70
2024-02-14T22:14:16.268Z,3.60
2024-02-14T22:16:43.319Z,3.95
2024-02-14T22:19:13.838Z,3.80
2024-02-14T22:21:41.114Z,4.03
2024-02-14T22:24:10.217Z,6.05
2024-02-14T22:26:37.089Z,6.22
2024-02-14T22:29:04.000Z,9.43
2024-02-14T22:31:30.733Z,7.57
2024-02-14T22:33:57.832Z,7.50
2024-02-14T22:36:25.654Z,8.38
2024-02-14T22:38:52.905Z,7.60
2024-02-14T22:41:22.920Z,7.82
2024-02-14T22:43:54.013Z,6.30
2024-02-14T22:46:21.025Z,6.35
2024-02-14T22:48:48.332Z,7.68
2024-02-14T22:51:15.863Z,7.10
2024-02-14T22:53:42.717Z,6.65
2024-02-14T22:56:11.337Z,5.67
2024-02-14T22:58:39.280Z,5.50
2024-02-14T23:01:06.787Z,5.93
2024-02-14T23:03:33.861Z,5.85
2024-02-14T23:06:03.308Z,5.22
2024-02-14T23:08:30.246Z,5.30
2024-02-14T23:10:57.088Z,5.15
2024-02-14T23:13:23.765Z,4.97
2024-02-14T23:15:53.198Z,5.03
2024-02-14T23:18:20.923Z,5.28
2024-02-14T23:20:48.558Z,4.50
2024-02-14T23:23:15.357Z,4.90
2024-02-14T23:25:42.203Z,5.28
2024-02-14T23:28:08.940Z,4.53
2024-02-14T23:30:36.374Z,4.72
2024-02-14T23:33:03.592Z,4.43
2024-02-14T23:35:30.526Z,4.85
2024-02-14T23:37:57.669Z,5.05
2024-02-14T23:40:24.548Z,4.18
2024-02-14T23:42:51.245Z,5.65
2024-02-14T23:45:18.107Z,5.00
2024-02-14T23:47:45.095Z,5.07
2024-02-14T23:50:13.716Z,5.07
2024-02-14T23:52:40.766Z,4.40
2024-02-14T23:55:07.734Z,4.13
2024-02-14T23:57:34.753Z,4.83
